sensor_id;sensor_type;location;lat;lon;timestamp;P1;durP1;ratioP1;P2;durP2;ratioP2
5787;SDS011;2920;48.158;12.254;2023-11-22T00:00:13;9.32;;;6.20;;
5787;SDS011;2920;48.158;12.254;2023-11-22T00:02:39;12.77;;;7.05;;
5787;SDS011;2920;48.158;12.254;2023-11-22T00:05:05;11.48;;;6.43;;
5787;SDS011;2920;48.158;12.254;2023-11-22T00:07:31;12.48;;;5.97;;
5787;SDS011;2920;48.158;12.254;2023-11-22T00:09:57;12.57;;;6.40;;
5787;SDS011;2920;48.158;12.254;2023-11-22T00:12:23;13.27;;;6.40;;
5787;SDS011;2920;48.158;12.254;2023-11-22T00:14:49;11.50;;;6.63;;
5787;SDS011;2920;48.158;12.254;2023-11-22T00:17:15;10.80;;;6.80;;
5787;SDS011;2920;48.158;12.254;2023-11-22T00:19:42;11.98;;;6.65;;
5787;SDS011;2920;48.158;12.254;2023-11-22T00:22:10;10.88;;;6.72;;
5787;SDS011;2920;48.158;12.254;2023-11-22T00:24:40;12.43;;;6.85;;
5787;SDS011;2920;48.158;12.254;2023-11-22T00:27:06;12.07;;;6.75;;
5787;SDS011;2920;48.158;12.254;2023-11-22T00:29:32;13.70;;;6.50;;
5787;SDS011;2920;48.158;12.254;2023-11-22T00:31:58;10.02;;;6.43;;
5787;SDS011;2920;48.158;12.254;2023-11-22T00:34:24;14.50;;;6.88;;
5787;SDS011;2920;48.158;12.254;2023-11-22T00:36:49;12.50;;;7.00;;
5787;SDS011;2920;48.158;12.254;2023-11-22T00:39:15;11.35;;;6.80;;
5787;SDS011;2920;48.158;12.254;2023-11-22T00:41:41;12.40;;;6.60;;
5787;SDS011;2920;48.158;12.254;2023-11-22T00:44:06;12.35;;;6.38;;
5787;SDS011;2920;48.158;12.254;2023-11-22T00:46:32;11.15;;;7.10;;
5787;SDS011;2920;48.158;12.254;2023-11-22T00:48:58;12.35;;;6.88;;
5787;SDS011;2920;48.158;12.254;2023-11-22T00:51:23;9.02;;;5.88;;
5787;SDS011;2920;48.158;12.254;2023-11-22T00:53:49;11.38;;;6.25;;
5787;SDS011;2920;48.158;12.254;2023-11-22T00:56:14;12.27;;;5.50;;
5787;SDS011;2920;48.158;12.254;2023-11-22T00:58:40;11.18;;;6.18;;
5787;SDS011;2920;48.158;12.254;2023-11-22T01:01:05;8.00;;;5.72;;
5787;SDS011;2920;48.158;12.254;2023-11-22T01:03:31;11.25;;;6.35;;
5787;SDS011;2920;48.158;12.254;2023-11-22T01:05:56;8.57;;;5.85;;
5787;SDS011;2920;48.158;12.254;2023-11-22T01:08:21;8.57;;;5.60;;
5787;SDS011;2920;48.158;12.254;2023-11-22T01:10:47;6.85;;;4.47;;
5787;SDS011;2920;48.158;12.254;2023-11-22T01:13:12;7.57;;;3.97;;
5787;SDS011;2920;48.158;12.254;2023-11-22T01:15:38;4.40;;;3.05;;
5787;SDS011;2920;48.158;12.254;2023-11-22T01:18:04;6.82;;;4.03;;
5787;SDS011;2920;48.158;12.254;2023-11-22T01:20:29;3.35;;;2.47;;
5787;SDS011;2920;48.158;12.254;2023-11-22T01:22:55;3.00;;;2.30;;
5787;SDS011;2920;48.158;12.254;2023-11-22T01:25:20;4.32;;;2.90;;
5787;SDS011;2920;48.158;12.254;2023-11-22T01:27:45;3.75;;;2.50;;
5787;SDS011;2920;48.158;12.254;2023-11-22T01:30:10;4.70;;;3.05;;
5787;SDS011;2920;48.158;12.254;2023-11-22T01:32:37;5.88;;;2.75;;
5787;SDS011;2920;48.158;12.254;2023-11-22T01:35:02;5.72;;;3.50;;
5787;SDS011;2920;48.158;12.254;2023-11-22T01:37:28;4.40;;;3.45;;
5787;SDS011;2920;48.158;12.254;2023-11-22T01:39:53;5.20;;;3.05;;
5787;SDS011;2920;48.158;12.254;2023-11-22T01:42:19;4.95;;;3.35;;
5787;SDS011;2920;48.158;12.254;2023-11-22T01:44:45;4.65;;;2.90;;
5787;SDS011;2920;48.158;12.254;2023-11-22T01:47:10;3.90;;;3.13;;
5787;SDS011;2920;48.158;12.254;2023-11-22T01:49:36;4.60;;;2.88;;
5787;SDS011;2920;48.158;12.254;2023-11-22T01:52:01;4.43;;;2.80;;
5787;SDS011;2920;48.158;12.254;2023-11-22T01:54:28;3.40;;;2.80;;
5787;SDS011;2920;48.158;12.254;2023-11-22T01:56:53;5.05;;;2.90;;
5787;SDS011;2920;48.158;12.254;2023-11-22T01:59:19;5.53;;;2.72;;
5787;SDS011;2920;48.158;12.254;2023-11-22T02:01:44;5.65;;;3.58;;
5787;SDS011;2920;48.158;12.254;2023-11-22T02:04:12;3.97;;;2.63;;
5787;SDS011;2920;48.158;12.254;2023-11-22T02:06:37;5.90;;;2.83;;
5787;SDS011;2920;48.158;12.254;2023-11-22T02:09:03;4.72;;;3.17;;
5787;SDS011;2920;48.158;12.254;2023-11-22T02:11:28;3.58;;;2.90;;
5787;SDS011;2920;48.158;12.254;2023-11-22T02:13:54;4.32;;;2.70;;
5787;SDS011;2920;48.158;12.254;2023-11-22T02:16:19;3.78;;;2.75;;
5787;SDS011;2920;48.158;12.254;2023-11-22T02:18:45;4.28;;;2.83;;
5787;SDS011;2920;48.158;12.254;2023-11-22T02:21:11;4.45;;;2.95;;
5787;SDS011;2920;48.158;12.254;2023-11-22T02:23:37;4.03;;;2.78;;
5787;SDS011;2920;48.158;12.254;2023-11-22T02:26:02;3.35;;;2.40;;
5787;SDS011;2920;48.158;12.254;2023-11-22T02:28:27;5.75;;;3.10;;
5787;SDS011;2920;48.158;12.254;2023-11-22T02:30:53;3.30;;;2.63;;
5787;SDS011;2920;48.158;12.254;2023-11-22T02:33:19;4.93;;;3.20;;
5787;SDS011;2920;48.158;12.254;2023-11-22T02:35:45;5.25;;;3.22;;
5787;SDS011;2920;48.158;12.254;2023-11-22T02:38:10;5.95;;;3.38;;
5787;SDS011;2920;48.158;12.254;2023-11-22T02:40:35;3.83;;;2.63;;
5787;SDS011;2920;48.158;12.254;2023-11-22T02:43:00;5.82;;;3.22;;
5787;SDS011;2920;48.158;12.254;2023-11-22T02:45:30;4.47;;;3.10;;
5787;SDS011;2920;48.158;12.254;2023-11-22T02:47:55;5.50;;;3.35;;
5787;SDS011;2920;48.158;12.254;2023-11-22T02:50:21;5.18;;;3.58;;
5787;SDS011;2920;48.158;12.254;2023-11-22T02:52:46;5.25;;;3.63;;
5787;SDS011;2920;48.158;12.254;2023-11-22T02:55:12;4.35;;;2.92;;
5787;SDS011;2920;48.158;12.254;2023-11-22T02:57:37;8.32;;;4.10;;
5787;SDS011;2920;48.158;12.254;2023-11-22T03:00:06;5.45;;;3.40;;
5787;SDS011;2920;48.158;12.254;2023-11-22T03:02:38;4.95;;;2.95;;
5787;SDS011;2920;48.158;12.254;2023-11-22T03:05:05;6.13;;;3.40;;
5787;SDS011;2920;48.158;12.254;2023-11-22T03:07:31;4.38;;;3.17;;
5787;SDS011;2920;48.158;12.254;2023-11-22T03:09:56;4.20;;;3.17;;
5787;SDS011;2920;48.158;12.254;2023-11-22T03:12:25;4.38;;;3.05;;
5787;SDS011;2920;48.158;12.254;2023-11-22T03:14:50;4.13;;;2.97;;
5787;SDS011;2920;48.158;12.254;2023-11-22T03:17:15;6.05;;;3.00;;
5787;SDS011;2920;48.158;12.254;2023-11-22T03:19:41;5.30;;;3.40;;
5787;SDS011;2920;48.158;12.254;2023-11-22T03:22:06;5.10;;;3.55;;
5787;SDS011;2920;48.158;12.254;2023-11-22T03:24:32;5.75;;;3.08;;
5787;SDS011;2920;48.158;12.254;2023-11-22T03:27:02;6.82;;;3.90;;
5787;SDS011;2920;48.158;12.254;2023-11-22T03:29:27;6.18;;;4.25;;
5787;SDS011;2920;48.158;12.254;2023-11-22T03:31:53;7.05;;;4.10;;
5787;SDS011;2920;48.158;12.254;2023-11-22T03:34:21;6.18;;;4.18;;
5787;SDS011;2920;48.158;12.254;2023-11-22T03:36:47;6.07;;;4.13;;
5787;SDS011;2920;48.158;12.254;2023-11-22T03:39:13;6.03;;;4.22;;
5787;SDS011;2920;48.158;12.254;2023-11-22T03:41:40;6.10;;;3.90;;
5787;SDS011;2920;48.158;12.254;2023-11-22T03:44:05;6.53;;;4.07;;
5787;SDS011;2920;48.158;12.254;2023-11-22T03:46:34;6.00;;;4.03;;
5787;SDS011;2920;48.158;12.254;2023-11-22T03:49:05;5.83;;;3.97;;
5787;SDS011;2920;48.158;12.254;2023-11-22T03:51:34;6.38;;;4.07;;
5787;SDS011;2920;48.158;12.254;2023-11-22T03:54:00;6.72;;;4.30;;
5787;SDS011;2920;48.158;12.254;2023-11-22T03:56:26;6.57;;;4.10;;
5787;SDS011;2920;48.158;12.254;2023-11-22T03:58:51;6.13;;;3.40;;
5787;SDS011;2920;48.158;12.254;2023-11-22T04:01:16;6.30;;;3.30;;
5787;SDS011;2920;48.158;12.254;2023-11-22T04:03:43;5.85;;;3.30;;
5787;SDS011;2920;48.158;12.254;2023-11-22T04:06:09;4.85;;;3.47;;
5787;SDS011;2920;48.158;12.254;2023-11-22T04:08:34;4.97;;;3.47;;
5787;SDS011;2920;48.158;12.254;2023-11-22T04:10:59;4.68;;;3.17;;
5787;SDS011;2920;48.158;12.254;2023-11-22T04:13:24;5.45;;;3.40;;
5787;SDS011;2920;48.158;12.254;2023-11-22T04:15:50;9.07;;;3.70;;
5787;SDS011;2920;48.158;12.254;2023-11-22T04:18:16;6.38;;;3.33;;
5787;SDS011;2920;48.158;12.254;2023-11-22T04:20:41;5.25;;;3.50;;
5787;SDS011;2920;48.158;12.254;2023-11-22T04:23:07;6.25;;;3.60;;
5787;SDS011;2920;48.158;12.254;2023-11-22T04:25:35;5.13;;;3.47;;
5787;SDS011;2920;48.158;12.254;2023-11-22T04:28:01;4.93;;;3.00;;
5787;SDS011;2920;48.158;12.254;2023-11-22T04:30:26;4.78;;;3.30;;
5787;SDS011;2920;48.158;12.254;2023-11-22T04:32:52;4.65;;;3.15;;
5787;SDS011;2920;48.158;12.254;2023-11-22T04:35:17;17.55;;;3.70;;
5787;SDS011;2920;48.158;12.254;2023-11-22T04:37:42;5.32;;;3.53;;
5787;SDS011;2920;48.158;12.254;2023-11-22T04:40:08;6.60;;;3.50;;
5787;SDS011;2920;48.158;12.254;2023-11-22T04:42:34;5.80;;;3.60;;
5787;SDS011;2920;48.158;12.254;2023-11-22T04:45:01;6.15;;;3.95;;
5787;SDS011;2920;48.158;12.254;2023-11-22T04:47:27;6.20;;;3.90;;
5787;SDS011;2920;48.158;12.254;2023-11-22T04:49:52;8.40;;;3.75;;
5787;SDS011;2920;48.158;12.254;2023-11-22T04:52:18;5.70;;;3.80;;
5787;SDS011;2920;48.158;12.254;2023-11-22T04:54:43;6.22;;;4.10;;
5787;SDS011;2920;48.158;12.254;2023-11-22T04:57:08;5.57;;;3.63;;
5787;SDS011;2920;48.158;12.254;2023-11-22T04:59:33;5.60;;;3.70;;
5787;SDS011;2920;48.158;12.254;2023-11-22T05:01:59;6.72;;;3.85;;
5787;SDS011;2920;48.158;12.254;2023-11-22T05:04:24;7.00;;;4.15;;
5787;SDS011;2920;48.158;12.254;2023-11-22T05:06:51;8.02;;;4.15;;
5787;SDS011;2920;48.158;12.254;2023-11-22T05:09:16;7.78;;;4.55;;
5787;SDS011;2920;48.158;12.254;2023-11-22T05:11:43;9.15;;;5.70;;
5787;SDS011;2920;48.158;12.254;2023-11-22T05:14:09;5.65;;;3.55;;
5787;SDS011;2920;48.158;12.254;2023-11-22T05:16:35;6.70;;;4.30;;
5787;SDS011;2920;48.158;12.254;2023-11-22T05:19:00;5.20;;;3.55;;
5787;SDS011;2920;48.158;12.254;2023-11-22T05:21:25;7.00;;;4.45;;
5787;SDS011;2920;48.158;12.254;2023-11-22T05:23:51;7.22;;;3.88;;
5787;SDS011;2920;48.158;12.254;2023-11-22T05:26:18;7.00;;;4.30;;
5787;SDS011;2920;48.158;12.254;2023-11-22T05:28:43;7.03;;;4.13;;
5787;SDS011;2920;48.158;12.254;2023-11-22T05:31:08;6.15;;;3.85;;
5787;SDS011;2920;48.158;12.254;2023-11-22T05:33:34;11.52;;;6.50;;
5787;SDS011;2920;48.158;12.254;2023-11-22T05:35:59;6.43;;;4.07;;
5787;SDS011;2920;48.158;12.254;2023-11-22T05:38:24;5.85;;;3.90;;
5787;SDS011;2920;48.158;12.254;2023-11-22T05:40:51;8.00;;;4.63;;
5787;SDS011;2920;48.158;12.254;2023-11-22T05:43:17;5.82;;;3.72;;
5787;SDS011;2920;48.158;12.254;2023-11-22T05:45:42;6.35;;;4.18;;
5787;SDS011;2920;48.158;12.254;2023-11-22T05:48:08;5.80;;;3.70;;
5787;SDS011;2920;48.158;12.254;2023-11-22T05:50:33;9.35;;;4.30;;
5787;SDS011;2920;48.158;12.254;2023-11-22T05:52:58;6.13;;;3.20;;
5787;SDS011;2920;48.158;12.254;2023-11-22T05:55:25;6.50;;;3.88;;
5787;SDS011;2920;48.158;12.254;2023-11-22T05:57:50;6.32;;;3.72;;
5787;SDS011;2920;48.158;12.254;2023-11-22T06:00:15;6.75;;;3.88;;
5787;SDS011;2920;48.158;12.254;2023-11-22T06:02:41;5.95;;;4.03;;
5787;SDS011;2920;48.158;12.254;2023-11-22T06:05:06;6.55;;;3.70;;
5787;SDS011;2920;48.158;12.254;2023-11-22T06:07:32;5.20;;;3.40;;
5787;SDS011;2920;48.158;12.254;2023-11-22T06:09:57;5.22;;;3.00;;
5787;SDS011;2920;48.158;12.254;2023-11-22T06:12:23;4.53;;;2.75;;
5787;SDS011;2920;48.158;12.254;2023-11-22T06:14:48;5.88;;;3.58;;
5787;SDS011;2920;48.158;12.254;2023-11-22T06:17:13;5.63;;;3.30;;
5787;SDS011;2920;48.158;12.254;2023-11-22T06:19:39;4.70;;;3.33;;
5787;SDS011;2920;48.158;12.254;2023-11-22T06:22:06;4.97;;;3.30;;
5787;SDS011;2920;48.158;12.254;2023-11-22T06:24:31;6.47;;;4.00;;
5787;SDS011;2920;48.158;12.254;2023-11-22T06:26:58;6.68;;;3.75;;
5787;SDS011;2920;48.158;12.254;2023-11-22T06:29:23;6.15;;;3.80;;
5787;SDS011;2920;48.158;12.254;2023-11-22T06:31:49;6.78;;;3.55;;
5787;SDS011;2920;48.158;12.254;2023-11-22T06:34:14;5.68;;;3.63;;
5787;SDS011;2920;48.158;12.254;2023-11-22T06:36:39;6.78;;;3.95;;
5787;SDS011;2920;48.158;12.254;2023-11-22T06:39:05;6.63;;;3.70;;
5787;SDS011;2920;48.158;12.254;2023-11-22T06:41:31;3.22;;;2.65;;
5787;SDS011;2920;48.158;12.254;2023-11-22T06:43:56;7.18;;;3.78;;
5787;SDS011;2920;48.158;12.254;2023-11-22T06:46:22;6.07;;;3.80;;
5787;SDS011;2920;48.158;12.254;2023-11-22T06:48:48;6.65;;;3.88;;
5787;SDS011;2920;48.158;12.254;2023-11-22T06:51:14;8.05;;;3.40;;
5787;SDS011;2920;48.158;12.254;2023-11-22T06:53:40;4.65;;;3.60;;
5787;SDS011;2920;48.158;12.254;2023-11-22T06:56:05;4.95;;;3.40;;
5787;SDS011;2920;48.158;12.254;2023-11-22T06:58:31;5.45;;;3.67;;
5787;SDS011;2920;48.158;12.254;2023-11-22T07:00:56;4.85;;;3.28;;
5787;SDS011;2920;48.158;12.254;2023-11-22T07:03:22;5.85;;;3.10;;
5787;SDS011;2920;48.158;12.254;2023-11-22T07:05:47;5.03;;;3.38;;
5787;SDS011;2920;48.158;12.254;2023-11-22T07:08:12;3.65;;;2.47;;
5787;SDS011;2920;48.158;12.254;2023-11-22T07:10:38;5.28;;;3.75;;
5787;SDS011;2920;48.158;12.254;2023-11-22T07:13:03;5.03;;;3.33;;
5787;SDS011;2920;48.158;12.254;2023-11-22T07:15:28;4.07;;;2.75;;
5787;SDS011;2920;48.158;12.254;2023-11-22T07:17:54;4.93;;;3.15;;
5787;SDS011;2920;48.158;12.254;2023-11-22T07:20:19;4.00;;;2.92;;
5787;SDS011;2920;48.158;12.254;2023-11-22T07:22:45;5.50;;;3.00;;
5787;SDS011;2920;48.158;12.254;2023-11-22T07:25:10;4.50;;;2.63;;
5787;SDS011;2920;48.158;12.254;2023-11-22T07:27:46;4.40;;;2.58;;
5787;SDS011;2920;48.158;12.254;2023-11-22T07:30:12;4.15;;;2.50;;
5787;SDS011;2920;48.158;12.254;2023-11-22T07:32:38;3.35;;;2.42;;
5787;SDS011;2920;48.158;12.254;2023-11-22T07:35:05;3.30;;;2.20;;
5787;SDS011;2920;48.158;12.254;2023-11-22T07:37:33;3.03;;;2.38;;
5787;SDS011;2920;48.158;12.254;2023-11-22T07:39:59;3.13;;;2.15;;
5787;SDS011;2920;48.158;12.254;2023-11-22T07:42:25;3.40;;;2.30;;
5787;SDS011;2920;48.158;12.254;2023-11-22T07:44:51;3.90;;;2.75;;
5787;SDS011;2920;48.158;12.254;2023-11-22T07:47:21;3.88;;;2.30;;
5787;SDS011;2920;48.158;12.254;2023-11-22T07:49:47;4.75;;;2.42;;
5787;SDS011;2920;48.158;12.254;2023-11-22T07:52:13;3.80;;;2.28;;
5787;SDS011;2920;48.158;12.254;2023-11-22T07:54:39;3.17;;;2.55;;
5787;SDS011;2920;48.158;12.254;2023-11-22T07:57:05;2.67;;;2.17;;
5787;SDS011;2920;48.158;12.254;2023-11-22T07:59:31;3.22;;;2.13;;
5787;SDS011;2920;48.158;12.254;2023-11-22T08:01:56;2.97;;;2.00;;
5787;SDS011;2920;48.158;12.254;2023-11-22T08:04:22;3.20;;;2.40;;
5787;SDS011;2920;48.158;12.254;2023-11-22T08:06:48;4.35;;;2.42;;
5787;SDS011;2920;48.158;12.254;2023-11-22T08:09:14;3.60;;;1.77;;
5787;SDS011;2920;48.158;12.254;2023-11-22T08:11:41;3.78;;;2.55;;
5787;SDS011;2920;48.158;12.254;2023-11-22T08:14:06;3.45;;;2.50;;
5787;SDS011;2920;48.158;12.254;2023-11-22T08:16:33;4.05;;;2.22;;
5787;SDS011;2920;48.158;12.254;2023-11-22T08:19:03;3.42;;;2.05;;
5787;SDS011;2920;48.158;12.254;2023-11-22T08:21:28;2.28;;;1.80;;
5787;SDS011;2920;48.158;12.254;2023-11-22T08:23:53;3.08;;;2.00;;
5787;SDS011;2920;48.158;12.254;2023-11-22T08:26:19;3.65;;;1.90;;
5787;SDS011;2920;48.158;12.254;2023-11-22T08:28:45;3.25;;;2.17;;
5787;SDS011;2920;48.158;12.254;2023-11-22T08:31:10;3.05;;;2.17;;
5787;SDS011;2920;48.158;12.254;2023-11-22T08:33:36;4.60;;;2.47;;
5787;SDS011;2920;48.158;12.254;2023-11-22T08:36:02;2.65;;;2.15;;
5787;SDS011;2920;48.158;12.254;2023-11-22T08:38:29;7.03;;;2.50;;
5787;SDS011;2920;48.158;12.254;2023-11-22T08:40:56;5.47;;;2.22;;
5787;SDS011;2920;48.158;12.254;2023-11-22T08:43:21;3.35;;;2.30;;
5787;SDS011;2920;48.158;12.254;2023-11-22T08:45:51;3.42;;;2.28;;
5787;SDS011;2920;48.158;12.254;2023-11-22T08:48:16;3.85;;;2.55;;
5787;SDS011;2920;48.158;12.254;2023-11-22T08:50:42;3.42;;;2.30;;
5787;SDS011;2920;48.158;12.254;2023-11-22T08:53:09;2.88;;;2.13;;
5787;SDS011;2920;48.158;12.254;2023-11-22T08:55:35;3.38;;;2.60;;
5787;SDS011;2920;48.158;12.254;2023-11-22T08:58:00;4.25;;;2.53;;
5787;SDS011;2920;48.158;12.254;2023-11-22T09:00:25;2.58;;;1.98;;
5787;SDS011;2920;48.158;12.254;2023-11-22T09:02:53;6.15;;;2.80;;
5787;SDS011;2920;48.158;12.254;2023-11-22T09:05:20;3.20;;;2.17;;
5787;SDS011;2920;48.158;12.254;2023-11-22T09:07:46;4.05;;;2.17;;
5787;SDS011;2920;48.158;12.254;2023-11-22T09:10:12;2.60;;;2.05;;
5787;SDS011;2920;48.158;12.254;2023-11-22T09:12:40;2.05;;;1.77;;
5787;SDS011;2920;48.158;12.254;2023-11-22T09:15:06;2.38;;;1.92;;
5787;SDS011;2920;48.158;12.254;2023-11-22T09:17:39;3.00;;;1.95;;
5787;SDS011;2920;48.158;12.254;2023-11-22T09:20:09;2.75;;;1.95;;
5787;SDS011;2920;48.158;12.254;2023-11-22T09:22:36;2.45;;;1.80;;
5787;SDS011;2920;48.158;12.254;2023-11-22T09:25:13;2.13;;;1.77;;
5787;SDS011;2920;48.158;12.254;2023-11-22T09:27:41;2.80;;;2.00;;
5787;SDS011;2920;48.158;12.254;2023-11-22T09:30:07;3.65;;;2.35;;
5787;SDS011;2920;48.158;12.254;2023-11-22T09:32:36;2.85;;;2.28;;
5787;SDS011;2920;48.158;12.254;2023-11-22T09:35:03;2.88;;;2.20;;
5787;SDS011;2920;48.158;12.254;2023-11-22T09:37:29;2.72;;;2.08;;
5787;SDS011;2920;48.158;12.254;2023-11-22T09:39:54;3.47;;;2.40;;
5787;SDS011;2920;48.158;12.254;2023-11-22T09:42:20;2.97;;;2.25;;
5787;SDS011;2920;48.158;12.254;2023-11-22T09:44:45;3.67;;;2.28;;
5787;SDS011;2920;48.158;12.254;2023-11-22T09:47:11;2.95;;;2.00;;
5787;SDS011;2920;48.158;12.254;2023-11-22T09:49:36;2.35;;;2.05;;
5787;SDS011;2920;48.158;12.254;2023-11-22T09:52:05;3.50;;;2.20;;
5787;SDS011;2920;48.158;12.254;2023-11-22T09:54:33;6.25;;;2.60;;
5787;SDS011;2920;48.158;12.254;2023-11-22T09:56:59;2.95;;;1.90;;
5787;SDS011;2920;48.158;12.254;2023-11-22T09:59:26;3.55;;;2.63;;
5787;SDS011;2920;48.158;12.254;2023-11-22T10:01:52;2.60;;;1.92;;
5787;SDS011;2920;48.158;12.254;2023-11-22T10:04:19;3.28;;;1.90;;
5787;SDS011;2920;48.158;12.254;2023-11-22T10:06:45;3.88;;;2.40;;
5787;SDS011;2920;48.158;12.254;2023-11-22T10:09:11;2.85;;;1.98;;
5787;SDS011;2920;48.158;12.254;2023-11-22T10:11:39;3.17;;;2.30;;
5787;SDS011;2920;48.158;12.254;2023-11-22T10:14:08;4.38;;;2.63;;
5787;SDS011;2920;48.158;12.254;2023-11-22T10:16:33;2.85;;;2.10;;
5787;SDS011;2920;48.158;12.254;2023-11-22T10:18:59;3.50;;;2.25;;
5787;SDS011;2920;48.158;12.254;2023-11-22T10:21:25;2.78;;;2.10;;
5787;SDS011;2920;48.158;12.254;2023-11-22T10:23:55;2.75;;;2.42;;
5787;SDS011;2920;48.158;12.254;2023-11-22T10:26:21;2.67;;;2.35;;
5787;SDS011;2920;48.158;12.254;2023-11-22T10:28:50;4.05;;;2.50;;
5787;SDS011;2920;48.158;12.254;2023-11-22T10:31:16;3.58;;;2.28;;
5787;SDS011;2920;48.158;12.254;2023-11-22T10:33:42;3.08;;;2.30;;
5787;SDS011;2920;48.158;12.254;2023-11-22T10:36:07;3.92;;;2.50;;
5787;SDS011;2920;48.158;12.254;2023-11-22T10:38:33;2.63;;;1.83;;
5787;SDS011;2920;48.158;12.254;2023-11-22T10:40:59;3.88;;;2.58;;
5787;SDS011;2920;48.158;12.254;2023-11-22T10:43:26;3.83;;;2.10;;
5787;SDS011;2920;48.158;12.254;2023-11-22T10:45:54;2.13;;;1.75;;
5787;SDS011;2920;48.158;12.254;2023-11-22T10:48:20;2.70;;;2.00;;
5787;SDS011;2920;48.158;12.254;2023-11-22T10:50:46;2.97;;;2.13;;
5787;SDS011;2920;48.158;12.254;2023-11-22T10:53:12;3.72;;;2.30;;
5787;SDS011;2920;48.158;12.254;2023-11-22T10:55:46;2.72;;;2.10;;
5787;SDS011;2920;48.158;12.254;2023-11-22T10:58:13;2.65;;;1.90;;
5787;SDS011;2920;48.158;12.254;2023-11-22T11:00:40;4.72;;;2.33;;
5787;SDS011;2920;48.158;12.254;2023-11-22T11:03:16;2.97;;;1.95;;
5787;SDS011;2920;48.158;12.254;2023-11-22T11:05:46;3.45;;;2.20;;
5787;SDS011;2920;48.158;12.254;2023-11-22T11:08:16;2.50;;;1.85;;
5787;SDS011;2920;48.158;12.254;2023-11-22T11:10:43;2.80;;;1.95;;
5787;SDS011;2920;48.158;12.254;2023-11-22T11:13:10;2.83;;;1.88;;
5787;SDS011;2920;48.158;12.254;2023-11-22T11:15:37;2.35;;;2.03;;
5787;SDS011;2920;48.158;12.254;2023-11-22T11:18:03;2.65;;;2.03;;
5787;SDS011;2920;48.158;12.254;2023-11-22T11:20:33;3.40;;;1.77;;
5787;SDS011;2920;48.158;12.254;2023-11-22T11:23:13;2.00;;;1.70;;
5787;SDS011;2920;48.158;12.254;2023-11-22T11:25:39;1.90;;;1.70;;
5787;SDS011;2920;48.158;12.254;2023-11-22T11:28:04;1.50;;;1.40;;
5787;SDS011;2920;48.158;12.254;2023-11-22T11:30:40;2.10;;;1.58;;
5787;SDS011;2920;48.158;12.254;2023-11-22T11:33:13;2.33;;;1.58;;
5787;SDS011;2920;48.158;12.254;2023-11-22T11:35:48;2.47;;;1.60;;
5787;SDS011;2920;48.158;12.254;2023-11-22T11:38:15;1.85;;;1.58;;
5787;SDS011;2920;48.158;12.254;2023-11-22T11:40:42;3.30;;;1.80;;
5787;SDS011;2920;48.158;12.254;2023-11-22T11:43:09;2.90;;;1.90;;
5787;SDS011;2920;48.158;12.254;2023-11-22T11:45:38;2.72;;;1.80;;
5787;SDS011;2920;48.158;12.254;2023-11-22T11:50:33;2.47;;;1.85;;
5787;SDS011;2920;48.158;12.254;2023-11-22T11:52:58;2.22;;;1.52;;
5787;SDS011;2920;48.158;12.254;2023-11-22T11:55:25;2.15;;;1.70;;
5787;SDS011;2920;48.158;12.254;2023-11-22T11:57:53;2.33;;;1.52;;
5787;SDS011;2920;48.158;12.254;2023-11-22T12:00:19;3.08;;;1.83;;
5787;SDS011;2920;48.158;12.254;2023-11-22T12:02:45;2.08;;;1.75;;
5787;SDS011;2920;48.158;12.254;2023-11-22T12:05:10;2.40;;;1.88;;
5787;SDS011;2920;48.158;12.254;2023-11-22T12:07:36;2.58;;;1.90;;
5787;SDS011;2920;48.158;12.254;2023-11-22T12:10:02;1.63;;;1.48;;
5787;SDS011;2920;48.158;12.254;2023-11-22T12:12:28;2.70;;;1.80;;
5787;SDS011;2920;48.158;12.254;2023-11-22T12:14:54;2.25;;;1.73;;
5787;SDS011;2920;48.158;12.254;2023-11-22T12:17:20;2.03;;;1.60;;
5787;SDS011;2920;48.158;12.254;2023-11-22T12:19:47;2.60;;;2.10;;
5787;SDS011;2920;48.158;12.254;2023-11-22T12:22:13;2.03;;;1.65;;
5787;SDS011;2920;48.158;12.254;2023-11-22T12:24:39;2.80;;;1.83;;
5787;SDS011;2920;48.158;12.254;2023-11-22T12:27:04;2.65;;;1.80;;
5787;SDS011;2920;48.158;12.254;2023-11-22T12:29:35;3.30;;;2.28;;
5787;SDS011;2920;48.158;12.254;2023-11-22T12:32:01;2.70;;;1.90;;
5787;SDS011;2920;48.158;12.254;2023-11-22T12:34:27;2.25;;;1.85;;
5787;SDS011;2920;48.158;12.254;2023-11-22T12:36:54;2.95;;;1.73;;
5787;SDS011;2920;48.158;12.254;2023-11-22T12:39:20;2.53;;;1.90;;
5787;SDS011;2920;48.158;12.254;2023-11-22T12:41:49;2.60;;;1.70;;
5787;SDS011;2920;48.158;12.254;2023-11-22T12:44:16;2.58;;;1.88;;
5787;SDS011;2920;48.158;12.254;2023-11-22T12:46:48;2.63;;;2.17;;
5787;SDS011;2920;48.158;12.254;2023-11-22T12:49:15;3.13;;;1.98;;
5787;SDS011;2920;48.158;12.254;2023-11-22T12:51:47;3.67;;;2.10;;
5787;SDS011;2920;48.158;12.254;2023-11-22T12:54:13;2.08;;;1.63;;
5787;SDS011;2920;48.158;12.254;2023-11-22T12:56:38;2.55;;;1.75;;
5787;SDS011;2920;48.158;12.254;2023-11-22T12:59:04;3.03;;;2.03;;
5787;SDS011;2920;48.158;12.254;2023-11-22T13:01:29;2.30;;;1.90;;
5787;SDS011;2920;48.158;12.254;2023-11-22T13:03:54;2.25;;;1.63;;
5787;SDS011;2920;48.158;12.254;2023-11-22T13:06:20;2.67;;;1.80;;
5787;SDS011;2920;48.158;12.254;2023-11-22T13:08:45;3.17;;;2.08;;
5787;SDS011;2920;48.158;12.254;2023-11-22T13:11:10;2.20;;;1.92;;
5787;SDS011;2920;48.158;12.254;2023-11-22T13:13:36;2.38;;;1.88;;
5787;SDS011;2920;48.158;12.254;2023-11-22T13:16:01;2.72;;;1.75;;
5787;SDS011;2920;48.158;12.254;2023-11-22T13:18:27;3.03;;;2.17;;
5787;SDS011;2920;48.158;12.254;2023-11-22T13:20:52;3.10;;;2.40;;
5787;SDS011;2920;48.158;12.254;2023-11-22T13:23:17;2.20;;;2.00;;
5787;SDS011;2920;48.158;12.254;2023-11-22T13:25:43;2.75;;;2.35;;
5787;SDS011;2920;48.158;12.254;2023-11-22T13:28:09;3.13;;;2.00;;
5787;SDS011;2920;48.158;12.254;2023-11-22T13:30:34;2.50;;;2.08;;
5787;SDS011;2920;48.158;12.254;2023-11-22T13:33:00;3.28;;;2.25;;
5787;SDS011;2920;48.158;12.254;2023-11-22T13:35:26;3.50;;;2.72;;
5787;SDS011;2920;48.158;12.254;2023-11-22T13:37:56;3.65;;;2.30;;
5787;SDS011;2920;48.158;12.254;2023-11-22T13:40:22;3.65;;;2.22;;
5787;SDS011;2920;48.158;12.254;2023-11-22T13:42:49;2.78;;;2.10;;
5787;SDS011;2920;48.158;12.254;2023-11-22T13:45:15;3.03;;;1.83;;
5787;SDS011;2920;48.158;12.254;2023-11-22T13:47:42;3.15;;;1.95;;
5787;SDS011;2920;48.158;12.254;2023-11-22T13:50:22;3.03;;;2.20;;
5787;SDS011;2920;48.158;12.254;2023-11-22T13:52:48;3.10;;;1.77;;
5787;SDS011;2920;48.158;12.254;2023-11-22T13:55:14;3.30;;;1.88;;
5787;SDS011;2920;48.158;12.254;2023-11-22T13:57:41;2.00;;;1.50;;
5787;SDS011;2920;48.158;12.254;2023-11-22T14:00:07;3.28;;;1.92;;
5787;SDS011;2920;48.158;12.254;2023-11-22T14:02:38;2.53;;;1.65;;
5787;SDS011;2920;48.158;12.254;2023-11-22T14:05:04;3.00;;;2.30;;
5787;SDS011;2920;48.158;12.254;2023-11-22T14:07:35;3.97;;;2.70;;
5787;SDS011;2920;48.158;12.254;2023-11-22T14:10:01;6.03;;;4.00;;
5787;SDS011;2920;48.158;12.254;2023-11-22T14:12:28;6.55;;;4.60;;
5787;SDS011;2920;48.158;12.254;2023-11-22T14:14:54;4.32;;;3.15;;
5787;SDS011;2920;48.158;12.254;2023-11-22T14:17:19;4.97;;;3.40;;
5787;SDS011;2920;48.158;12.254;2023-11-22T14:19:46;5.18;;;3.95;;
5787;SDS011;2920;48.158;12.254;2023-11-22T14:22:11;4.45;;;3.55;;
5787;SDS011;2920;48.158;12.254;2023-11-22T14:24:39;5.82;;;3.83;;
5787;SDS011;2920;48.158;12.254;2023-11-22T14:27:04;5.47;;;3.45;;
5787;SDS011;2920;48.158;12.254;2023-11-22T14:29:30;4.82;;;3.30;;
5787;SDS011;2920;48.158;12.254;2023-11-22T14:31:55;5.75;;;3.40;;
5787;SDS011;2920;48.158;12.254;2023-11-22T14:34:20;4.70;;;3.17;;
5787;SDS011;2920;48.158;12.254;2023-11-22T14:36:46;4.63;;;3.17;;
5787;SDS011;2920;48.158;12.254;2023-11-22T14:39:11;4.82;;;2.88;;
5787;SDS011;2920;48.158;12.254;2023-11-22T14:41:39;5.63;;;3.22;;
5787;SDS011;2920;48.158;12.254;2023-11-22T14:44:05;6.85;;;3.78;;
5787;SDS011;2920;48.158;12.254;2023-11-22T14:46:30;4.32;;;3.25;;
5787;SDS011;2920;48.158;12.254;2023-11-22T14:48:57;3.92;;;2.85;;
5787;SDS011;2920;48.158;12.254;2023-11-22T14:51:23;4.53;;;3.13;;
5787;SDS011;2920;48.158;12.254;2023-11-22T14:53:48;5.55;;;3.92;;
5787;SDS011;2920;48.158;12.254;2023-11-22T14:56:14;5.00;;;3.60;;